createdAt,value
2023-07-30T00:00:12.473Z,100509.78
2023-07-30T00:01:03.957Z,100509.78
2023-07-30T00:01:55.403Z,100511.50
2023-07-30T00:02:46.870Z,100505.41
2023-07-30T00:03:38.596Z,100506.28
2023-07-30T00:04:30.032Z,100513.28
2023-07-30T00:05:21.424Z,100511.53
2023-07-30T00:06:12.812Z,100514.16
2023-07-30T00:07:04.467Z,100513.31
2023-07-30T00:07:55.941Z,100517.69
2023-07-30T00:08:47.309Z,100517.69
2023-07-30T00:09:39.866Z,100518.56
2023-07-30T00:10:31.272Z,100517.69
2023-07-30T00:11:22.705Z,100517.69
2023-07-30T00:12:14.099Z,100512.44
2023-07-30T00:13:05.488Z,100516.81
2023-07-30T00:13:56.859Z,100523.84
2023-07-30T00:14:48.269Z,100526.44
2023-07-30T00:15:39.651Z,100524.69
2023-07-30T00:16:31.247Z,100522.94
2023-07-30T00:17:22.617Z,100522.06
2023-07-30T00:18:14.686Z,100522.06
2023-07-30T00:19:06.143Z,100520.31
2023-07-30T00:19:57.521Z,100515.09
2023-07-30T00:20:48.965Z,100527.31
2023-07-30T00:21:40.445Z,100516.81
2023-07-30T00:22:32.060Z,100517.72
2023-07-30T00:23:23.425Z,100522.06
2023-07-30T00:24:14.872Z,100529.06
2023-07-30T00:25:06.861Z,100524.72
2023-07-30T00:25:58.266Z,100517.72
2023-07-30T00:26:49.716Z,100514.22
2023-07-30T00:27:41.607Z,100523.81
2023-07-30T00:28:34.892Z,100524.72
2023-07-30T00:29:26.387Z,100523.84
2023-07-30T00:30:18.910Z,100524.72
2023-07-30T00:31:10.512Z,100515.94
2023-07-30T00:32:01.979Z,100522.94
2023-07-30T00:32:53.500Z,100522.03
2023-07-30T00:33:44.873Z,100522.03
2023-07-30T00:34:36.264Z,100520.31
2023-07-30T00:35:28.106Z,100529.91
2023-07-30T00:36:19.633Z,100527.28
2023-07-30T00:37:11.084Z,100531.66
2023-07-30T00:38:02.461Z,100527.31
2023-07-30T00:38:54.368Z,100526.41
2023-07-30T00:39:45.796Z,100533.41
2023-07-30T00:40:42.135Z,100529.03
2023-07-30T00:41:33.776Z,100522.91
2023-07-30T00:42:25.330Z,100534.28
2023-07-30T00:43:17.340Z,100525.56
2023-07-30T00:44:08.743Z,100520.31
2023-07-30T00:45:00.440Z,100528.19
2023-07-30T00:45:51.951Z,100526.41
2023-07-30T00:46:43.468Z,100524.69
2023-07-30T00:47:35.081Z,100522.94
2023-07-30T00:48:26.585Z,100521.19
2023-07-30T00:49:18.242Z,100518.56
2023-07-30T00:50:15.676Z,100524.66
2023-07-30T00:51:10.114Z,100514.22
2023-07-30T00:52:02.143Z,100523.78
2023-07-30T00:52:53.705Z,100530.78
2023-07-30T00:53:45.252Z,100521.19
2023-07-30T00:54:37.446Z,100526.41
2023-07-30T00:55:29.101Z,100515.94
2023-07-30T00:56:20.838Z,100522.03
2023-07-30T00:57:12.884Z,100524.66
2023-07-30T00:58:05.249Z,100526.44
2023-07-30T00:58:57.418Z,100523.78
2023-07-30T00:59:50.262Z,100529.03
2023-07-30T01:00:42.407Z,100525.53
2023-07-30T01:01:37.108Z,100527.31
2023-07-30T01:02:28.920Z,100526.47
2023-07-30T01:03:20.678Z,100531.69
2023-07-30T01:04:12.619Z,100531.72
2023-07-30T01:05:07.142Z,100532.59
2023-07-30T01:05:58.839Z,100529.94
2023-07-30T01:06:50.399Z,100530.81
2023-07-30T01:07:41.806Z,100531.69
2023-07-30T01:08:34.062Z,100534.28
2023-07-30T01:09:25.670Z,100536.03
2023-07-30T01:10:18.959Z,100542.19
2023-07-30T01:11:11.438Z,100540.44
2023-07-30T01:12:04.472Z,100541.31
2023-07-30T01:12:56.125Z,100543.94
2023-07-30T01:13:48.804Z,100543.06
2023-07-30T01:14:41.118Z,100543.91
2023-07-30T01:15:33.647Z,100543.03
2023-07-30T01:16:25.275Z,100543.91
2023-07-30T01:17:17.655Z,100538.66
2023-07-30T01:18:09.044Z,100537.81
2023-07-30T01:19:04.868Z,100532.56
2023-07-30T01:19:56.696Z,100535.16
2023-07-30T01:20:48.309Z,100538.69
2023-07-30T01:21:39.943Z,100544.78
2023-07-30T01:22:31.553Z,100539.56
2023-07-30T01:23:22.937Z,100544.78
2023-07-30T01:24:14.404Z,100548.28
2023-07-30T01:25:06.464Z,100554.41
2023-07-30T01:26:08.871Z,100548.28
2023-07-30T01:27:05.031Z,100550.88
2023-07-30T01:28:02.076Z,100549.16
2023-07-30T01:29:01.304Z,100550.88
2023-07-30T01:29:56.313Z,100552.63
2023-07-30T01:30:50.742Z,100549.16
2023-07-30T01:31:44.668Z,100552.63
2023-07-30T01:32:37.853Z,100550.91
2023-07-30T01:33:30.283Z,100557.00
2023-07-30T01:34:25.819Z,100551.78
2023-07-30T01:35:26.554Z,100549.13
2023-07-30T01:36:20.814Z,100554.38
2023-07-30T01:37:14.615Z,100552.63
2023-07-30T01:38:08.634Z,100559.63
2023-07-30T01:39:01.070Z,100552.63
2023-07-30T01:39:54.004Z,100559.63
2023-07-30T01:40:45.577Z,100562.25
2023-07-30T01:41:37.387Z,100557.88
2023-07-30T01:42:30.472Z,100563.13
2023-07-30T01:43:21.868Z,100558.75
2023-07-30T01:44:13.986Z,100562.22
2023-07-30T01:45:06.637Z,100560.47
2023-07-30T01:45:58.256Z,100564.88
2023-07-30T01:46:49.721Z,100567.47
2023-07-30T01:47:41.187Z,100564.88
2023-07-30T01:48:32.597Z,100569.22
2023-07-30T01:49:24.004Z,100570.13
2023-07-30T01:50:15.465Z,100564.84
2023-07-30T01:51:06.876Z,100571.84
2023-07-30T01:51:58.397Z,100563.09
2023-07-30T01:52:49.842Z,100561.34
2023-07-30T01:53:41.426Z,100571.84
2023-07-30T01:54:32.891Z,100561.34
2023-07-30T01:55:24.285Z,100560.47
2023-07-30T01:56:15.708Z,100564.84
2023-07-30T01:57:07.694Z,100555.22
2023-07-30T01:57:59.117Z,100560.47
2023-07-30T01:58:50.616Z,100556.09
2023-07-30T01:59:42.023Z,100564.81
2023-07-30T02:00:34.291Z,100559.56
2023-07-30T02:01:31.750Z,100567.44
2023-07-30T02:02:23.264Z,100570.03
2023-07-30T02:03:14.806Z,100570.91
2023-07-30T02:04:06.358Z,100568.31
2023-07-30T02:04:57.823Z,100557.78
2023-07-30T02:05:49.315Z,100559.56
2023-07-30T02:06:40.696Z,100562.19
2023-07-30T02:07:33.771Z,100553.44
2023-07-30T02:08:25.208Z,100556.94
2023-07-30T02:09:16.875Z,100554.31
2023-07-30T02:10:08.514Z,100553.44
2023-07-30T02:11:00.868Z,100559.56
2023-07-30T02:11:52.631Z,100554.31
2023-07-30T02:12:44.143Z,100558.69
2023-07-30T02:13:35.599Z,100560.44
2023-07-30T02:14:27.279Z,100558.66
2023-07-30T02:15:19.180Z,100552.56
2023-07-30T02:16:10.684Z,100551.69
2023-07-30T02:17:02.222Z,100549.06
2023-07-30T02:17:53.697Z,100544.69
2023-07-30T02:18:45.385Z,100548.19
2023-07-30T02:19:36.825Z,100544.69
2023-07-30T02:20:28.665Z,100550.81
2023-07-30T02:21:20.376Z,100553.44
2023-07-30T02:22:11.763Z,100555.19
2023-07-30T02:23:03.337Z,100553.44
2023-07-30T02:23:54.771Z,100558.69
2023-07-30T02:24:46.270Z,100561.31
2023-07-30T02:25:39.178Z,100557.81
2023-07-30T02:26:30.557Z,100544.69
2023-07-30T02:27:21.944Z,100543.78
2023-07-30T02:28:15.466Z,100540.31
2023-07-30T02:29:07.494Z,100535.09
2023-07-30T02:29:58.871Z,100534.22
2023-07-30T02:30:50.755Z,100533.34
2023-07-30T02:31:42.375Z,100534.19
2023-07-30T02:32:33.927Z,100534.19
2023-07-30T02:33:25.395Z,100537.72
2023-07-30T02:34:16.850Z,100544.75
2023-07-30T02:35:09.541Z,100547.38
2023-07-30T02:36:01.030Z,100543.88
2023-07-30T02:36:52.428Z,100548.22
2023-07-30T02:37:43.839Z,100543.00
2023-07-30T02:38:35.264Z,100550.91
2023-07-30T02:39:26.769Z,100553.50
2023-07-30T02:40:18.223Z,100555.25
2023-07-30T02:41:10.620Z,100556.97
2023-07-30T02:42:02.019Z,100557.84
2023-07-30T02:42:53.497Z,100557.00
2023-07-30T02:43:45.141Z,100557.00
2023-07-30T02:44:36.597Z,100564.00
2023-07-30T02:45:28.083Z,100560.50
2023-07-30T02:46:19.568Z,100563.97
2023-07-30T02:47:11.056Z,100559.63
2023-07-30T02:48:02.530Z,100560.50
2023-07-30T02:48:54.230Z,100552.66
2023-07-30T02:49:45.690Z,100547.41
2023-07-30T02:50:37.070Z,100550.03
2023-07-30T02:51:28.620Z,100547.38
2023-07-30T02:52:20.028Z,100562.25
2023-07-30T02:53:11.494Z,100554.38
2023-07-30T02:54:05.993Z,100562.28
2023-07-30T02:54:57.376Z,100565.75
2023-07-30T02:55:49.177Z,100566.63
2023-07-30T02:56:40.585Z,100557.88
2023-07-30T02:57:32.298Z,100556.09
2023-07-30T02:58:23.708Z,100560.47
2023-07-30T02:59:15.218Z,100567.47
2023-07-30T03:00:07.644Z,100558.72
2023-07-30T03:01:06.905Z,100564.84
2023-07-30T03:01:58.509Z,100564.78
2023-07-30T03:02:50.063Z,100570.94
2023-07-30T03:03:41.786Z,100569.16
2023-07-30T03:04:33.978Z,100572.63
2023-07-30T03:05:27.822Z,100570.88
2023-07-30T03:06:19.290Z,100570.84
2023-07-30T03:07:10.818Z,100574.34
2023-07-30T03:08:02.326Z,100568.22
2023-07-30T03:08:53.830Z,100569.09
2023-07-30T03:09:45.285Z,100579.59
2023-07-30T03:10:39.622Z,100581.34
2023-07-30T03:11:31.109Z,100581.34
2023-07-30T03:12:22.671Z,100580.47
2023-07-30T03:13:14.043Z,100574.34
2023-07-30T03:14:05.456Z,100577.84
2023-07-30T03:14:56.862Z,100584.84
2023-07-30T03:15:48.272Z,100580.44
2023-07-30T03:16:39.780Z,100584.81
2023-07-30T03:17:31.311Z,100586.56
2023-07-30T03:18:22.722Z,100583.09
2023-07-30T03:19:14.633Z,100578.69
2023-07-30T03:20:06.771Z,100583.97
2023-07-30T03:21:02.296Z,100586.56
2023-07-30T03:21:53.753Z,100591.81
2023-07-30T03:22:45.159Z,100588.31
2023-07-30T03:23:36.678Z,100588.31
2023-07-30T03:24:28.095Z,100586.56
2023-07-30T03:25:19.539Z,100586.56
2023-07-30T03:26:13.934Z,100585.69
2023-07-30T03:27:06.177Z,100589.19
2023-07-30T03:27:57.761Z,100588.31
2023-07-30T03:28:49.253Z,100590.06
2023-07-30T03:29:40.610Z,100596.19
2023-07-30T03:30:31.993Z,100586.53
2023-07-30T03:31:23.570Z,100590.03
2023-07-30T03:32:15.003Z,100593.53
2023-07-30T03:33:06.570Z,100594.41
2023-07-30T03:33:58.331Z,100594.41
2023-07-30T03:34:49.744Z,100583.94
2023-07-30T03:35:41.255Z,100592.69
2023-07-30T03:36:32.848Z,100589.19
2023-07-30T03:37:24.242Z,100594.41
2023-07-30T03:38:15.707Z,100589.16
2023-07-30T03:39:07.179Z,100595.28
2023-07-30T03:39:58.552Z,100598.78
2023-07-30T03:40:50.020Z,100599.66
2023-07-30T03:41:41.413Z,100593.53
2023-07-30T03:42:32.807Z,100591.78
2023-07-30T03:43:24.220Z,100595.28
2023-07-30T03:44:15.950Z,100593.56
2023-07-30T03:45:07.811Z,100597.06
2023-07-30T03:45:59.471Z,100597.06
2023-07-30T03:46:50.946Z,100592.66
2023-07-30T03:47:42.370Z,100592.63
2023-07-30T03:48:33.819Z,100591.75
2023-07-30T03:49:25.477Z,100590.00
2023-07-30T03:50:16.891Z,100594.38
2023-07-30T03:51:08.765Z,100599.66
2023-07-30T03:52:00.641Z,100603.16
2023-07-30T03:52:52.035Z,100600.53
2023-07-30T03:53:43.913Z,100600.53
2023-07-30T03:54:35.393Z,100596.16
2023-07-30T03:55:26.775Z,100609.31
2023-07-30T03:56:18.408Z,100597.03
2023-07-30T03:57:09.801Z,100598.78
2023-07-30T03:58:01.168Z,100604.88
2023-07-30T03:58:52.570Z,100609.25
2023-07-30T03:59:44.076Z,100610.16
2023-07-30T04:00:35.587Z,100614.50
2023-07-30T04:01:27.304Z,100616.28
2023-07-30T04:02:18.874Z,100606.66
2023-07-30T04:03:10.436Z,100603.16
2023-07-30T04:04:02.048Z,100610.16
2023-07-30T04:04:54.432Z,100609.31
2023-07-30T04:05:45.851Z,100611.06
2023-07-30T04:06:37.267Z,100609.31
2023-07-30T04:07:28.632Z,100613.66
2023-07-30T04:08:20.310Z,100617.16
2023-07-30T04:09:12.173Z,100620.66
2023-07-30T04:10:03.731Z,100619.81
2023-07-30T04:10:55.161Z,100623.31
2023-07-30T04:11:46.639Z,100625.06
2023-07-30T04:12:38.067Z,100624.22
2023-07-30T04:13:29.655Z,100629.44
2023-07-30T04:14:21.099Z,100623.34
2023-07-30T04:15:12.620Z,100625.94
2023-07-30T04:16:04.261Z,100620.69
2023-07-30T04:16:55.778Z,100624.19
2023-07-30T04:17:47.291Z,100624.16
2023-07-30T04:18:38.689Z,100620.69
2023-07-30T04:19:30.211Z,100624.19
2023-07-30T04:20:21.600Z,100618.06
2023-07-30T04:21:14.684Z,100618.06
2023-07-30T04:22:06.166Z,100625.06
2023-07-30T04:22:58.047Z,100622.44
2023-07-30T04:23:49.485Z,100618.09
2023-07-30T04:24:40.882Z,100618.94
2023-07-30T04:25:32.491Z,100617.22
2023-07-30T04:26:23.977Z,100623.31
2023-07-30T04:27:15.381Z,100619.81
2023-07-30T04:28:07.005Z,100616.31
2023-07-30T04:28:58.707Z,100616.31
2023-07-30T04:29:50.260Z,100612.81
2023-07-30T04:30:42.243Z,100610.19
2023-07-30T04:31:33.724Z,100611.94
2023-07-30T04:32:25.376Z,100612.84
2023-07-30T04:33:16.992Z,100617.22
2023-07-30T04:34:08.455Z,100618.09
2023-07-30T04:35:02.141Z,100616.38
2023-07-30T04:35:53.757Z,100620.75
2023-07-30T04:36:45.374Z,100612.00
2023-07-30T04:37:37.791Z,100618.97
2023-07-30T04:38:30.630Z,100618.09
2023-07-30T04:39:24.040Z,100610.25
2023-07-30T04:40:15.699Z,100614.59
2023-07-30T04:41:07.152Z,100616.34
2023-07-30T04:42:04.954Z,100616.31
2023-07-30T04:42:56.582Z,100619.81
2023-07-30T04:43:48.159Z,100617.16
2023-07-30T04:44:40.333Z,100620.66
2023-07-30T04:45:37.405Z,100618.94
2023-07-30T04:46:29.054Z,100624.19
2023-07-30T04:47:23.329Z,100623.28
2023-07-30T04:48:14.918Z,100616.28
2023-07-30T04:49:06.478Z,100625.91
2023-07-30T04:49:57.922Z,100616.28
2023-07-30T04:50:49.316Z,100619.78
2023-07-30T04:51:40.804Z,100618.91
2023-07-30T04:52:33.481Z,100618.03
2023-07-30T04:53:24.918Z,100623.28
2023-07-30T04:54:16.414Z,100614.50
2023-07-30T04:55:08.268Z,100619.75
2023-07-30T04:55:59.903Z,100622.38
2023-07-30T04:56:51.612Z,100625.88
2023-07-30T04:57:42.994Z,100621.50
2023-07-30T04:58:34.418Z,100625.88
2023-07-30T04:59:25.886Z,100627.63
2023-07-30T05:00:17.815Z,100625.00
2023-07-30T05:01:09.587Z,100630.25
2023-07-30T05:02:01.959Z,100626.75
2023-07-30T05:02:53.457Z,100623.22
2023-07-30T05:03:44.931Z,100614.47
2023-07-30T05:04:36.411Z,100620.59
2023-07-30T05:05:27.830Z,100615.34
2023-07-30T05:06:19.271Z,100620.59
2023-07-30T05:07:10.722Z,100618.81
2023-07-30T05:08:02.170Z,100618.81
2023-07-30T05:08:53.566Z,100621.44
2023-07-30T05:09:45.081Z,100622.28
2023-07-30T05:10:37.228Z,100618.75
2023-07-30T05:11:28.680Z,100618.75
2023-07-30T05:12:20.143Z,100611.75
2023-07-30T05:13:13.891Z,100618.75
2023-07-30T05:14:05.385Z,100621.38
2023-07-30T05:14:56.764Z,100624.88
2023-07-30T05:15:48.366Z,100624.00
2023-07-30T05:16:39.856Z,100624.88
2023-07-30T05:17:31.337Z,100624.00
2023-07-30T05:18:22.744Z,100624.00
2023-07-30T05:19:14.237Z,100628.41
2023-07-30T05:20:06.469Z,100622.25
2023-07-30T05:20:57.848Z,100620.53
2023-07-30T05:21:49.341Z,100620.50
2023-07-30T05:22:40.755Z,100621.38
2023-07-30T05:23:32.118Z,100629.25
2023-07-30T05:24:23.543Z,100623.13
2023-07-30T05:25:14.966Z,100634.53
2023-07-30T05:26:06.401Z,100628.44
2023-07-30T05:26:57.777Z,100621.34
2023-07-30T05:27:49.154Z,100625.75
2023-07-30T05:28:40.684Z,100623.16
2023-07-30T05:29:32.154Z,100624.88
2023-07-30T05:30:23.522Z,100626.69
2023-07-30T05:31:14.969Z,100618.75
2023-07-30T05:32:07.111Z,100630.13
2023-07-30T05:32:58.635Z,100631.91
2023-07-30T05:33:50.175Z,100624.00
2023-07-30T05:34:41.570Z,100617.88
2023-07-30T05:35:33.386Z,100624.91
2023-07-30T05:36:24.858Z,100621.41
2023-07-30T05:37:16.587Z,100624.91
2023-07-30T05:38:08.083Z,100623.13
2023-07-30T05:38:59.521Z,100624.00
2023-07-30T05:39:50.903Z,100619.63
2023-07-30T05:40:42.917Z,100622.31
2023-07-30T05:41:34.321Z,100624.94
2023-07-30T05:42:25.682Z,100625.78
2023-07-30T05:43:17.146Z,100624.91
2023-07-30T05:44:08.556Z,100631.00
2023-07-30T05:44:59.967Z,100633.63
2023-07-30T05:45:51.416Z,100626.66
2023-07-30T05:46:42.858Z,100624.00
2023-07-30T05:47:34.666Z,100627.53
2023-07-30T05:48:26.080Z,100626.69
2023-07-30T05:49:17.449Z,100633.66
2023-07-30T05:50:09.521Z,100627.53
2023-07-30T05:51:01.032Z,100628.41
2023-07-30T05:51:52.535Z,100632.81
2023-07-30T05:52:43.926Z,100624.06
2023-07-30T05:53:35.322Z,100631.06
2023-07-30T05:54:26.721Z,100629.28
2023-07-30T05:55:18.214Z,100631.94
2023-07-30T05:56:09.622Z,100631.97
2023-07-30T05:57:01.027Z,100632.81
2023-07-30T05:57:54.293Z,100645.06
2023-07-30T05:58:45.892Z,100637.19
2023-07-30T05:59:37.303Z,100633.69
2023-07-30T06:00:28.847Z,100637.19
2023-07-30T06:01:20.980Z,100637.16
2023-07-30T06:02:12.581Z,100634.50
2023-07-30T06:03:04.404Z,100637.09
2023-07-30T06:03:55.830Z,100631.81
2023-07-30T06:04:47.245Z,100639.66
2023-07-30T06:05:42.038Z,100632.63
2023-07-30T06:06:33.582Z,100637.00
2023-07-30T06:07:24.990Z,100631.75
2023-07-30T06:08:16.356Z,100631.75
2023-07-30T06:09:07.828Z,100636.16
2023-07-30T06:09:59.226Z,100623.00
2023-07-30T06:10:50.630Z,100630.03
2023-07-30T06:11:42.088Z,100628.28
2023-07-30T06:12:33.868Z,100637.91
2023-07-30T06:13:25.282Z,100635.28
2023-07-30T06:14:16.785Z,100638.81
2023-07-30T06:15:10.404Z,100637.97
2023-07-30T06:16:01.884Z,100636.22
2023-07-30T06:16:54.524Z,100639.69
2023-07-30T06:17:46.051Z,100637.97
2023-07-30T06:18:37.502Z,100637.09
2023-07-30T06:19:28.952Z,100635.34
2023-07-30T06:20:20.509Z,100636.16
2023-07-30T06:21:12.020Z,100638.81
2023-07-30T06:22:03.558Z,100637.88
2023-07-30T06:22:54.933Z,100639.66
2023-07-30T06:23:46.621Z,100635.22
2023-07-30T06:24:38.076Z,100635.19
2023-07-30T06:25:29.510Z,100636.94
2023-07-30T06:26:20.892Z,100636.06
2023-07-30T06:27:13.400Z,100633.44
2023-07-30T06:28:06.501Z,100635.22
2023-07-30T06:28:58.124Z,100637.00
2023-07-30T06:29:49.554Z,100642.22
2023-07-30T06:30:40.907Z,100636.09
2023-07-30T06:31:32.545Z,100645.75
2023-07-30T06:32:24.143Z,100646.59
2023-07-30T06:33:15.513Z,100653.63
2023-07-30T06:34:07.201Z,100652.72
2023-07-30T06:34:58.728Z,100649.25
2023-07-30T06:35:50.100Z,100648.31
2023-07-30T06:36:41.612Z,100642.19
2023-07-30T06:37:33.731Z,100647.41
2023-07-30T06:38:25.184Z,100651.75
2023-07-30T06:39:16.539Z,100654.34
2023-07-30T06:40:08.872Z,100656.97
2023-07-30T06:41:00.382Z,100654.28
2023-07-30T06:41:51.825Z,100655.13
2023-07-30T06:42:44.214Z,100661.22
2023-07-30T06:43:35.638Z,100653.31
2023-07-30T06:44:27.053Z,100649.81
2023-07-30T06:45:18.605Z,100662.97
2023-07-30T06:46:09.984Z,100665.63
2023-07-30T06:47:02.063Z,100665.63
2023-07-30T06:47:53.603Z,100667.41
2023-07-30T06:48:45.056Z,100670.91
2023-07-30T06:49:38.020Z,100664.84
2023-07-30T06:50:29.413Z,100666.66
2023-07-30T06:51:21.475Z,100671.91
2023-07-30T06:52:13.199Z,100670.16
2023-07-30T06:53:04.607Z,100674.50
2023-07-30T06:53:55.999Z,100676.28
2023-07-30T06:54:47.594Z,100685.06
2023-07-30T06:55:38.998Z,100685.94
2023-07-30T06:56:30.368Z,100684.19
2023-07-30T06:57:22.002Z,100686.84
2023-07-30T06:58:13.498Z,100681.63
2023-07-30T06:59:04.895Z,100687.75
2023-07-30T06:59:56.379Z,100689.53
2023-07-30T07:00:47.984Z,100692.13
2023-07-30T07:01:39.572Z,100695.63
2023-07-30T07:02:31.336Z,100694.78
2023-07-30T07:03:22.877Z,100690.44
2023-07-30T07:04:14.844Z,100695.66
2023-07-30T07:05:06.424Z,100695.66
2023-07-30T07:05:57.880Z,100693.03
2023-07-30T07:06:49.306Z,100696.53
2023-07-30T07:07:40.877Z,100694.78
2023-07-30T07:08:32.336Z,100693.00
2023-07-30T07:09:23.794Z,100693.88
2023-07-30T07:10:15.912Z,100695.63
2023-07-30T07:11:07.893Z,100698.25
2023-07-30T07:11:59.853Z,100693.88
2023-07-30T07:12:51.286Z,100696.47
2023-07-30T07:13:42.712Z,100704.38
2023-07-30T07:14:34.141Z,100700.00
2023-07-30T07:15:25.569Z,100696.47
2023-07-30T07:16:17.067Z,100700.00
2023-07-30T07:17:08.505Z,100700.00
2023-07-30T07:17:59.925Z,100691.19
2023-07-30T07:18:51.392Z,100689.38
2023-07-30T07:19:42.787Z,100692.91
2023-07-30T07:20:34.301Z,100687.59
2023-07-30T07:21:27.360Z,100691.09
2023-07-30T07:22:19.350Z,100697.19
2023-07-30T07:23:13.713Z,100699.84
2023-07-30T07:24:05.603Z,100689.25
2023-07-30T07:24:57.051Z,100693.59
2023-07-30T07:25:48.445Z,100687.41
2023-07-30T07:26:39.924Z,100686.47
2023-07-30T07:27:31.330Z,100685.53
2023-07-30T07:28:22.865Z,100685.44
2023-07-30T07:29:14.311Z,100687.19
2023-07-30T07:30:06.390Z,100683.56
2023-07-30T07:30:57.784Z,100691.53
2023-07-30T07:31:49.169Z,100685.31
2023-07-30T07:32:40.702Z,100688.69
2023-07-30T07:33:32.284Z,100697.41
2023-07-30T07:34:23.868Z,100691.28
2023-07-30T07:35:15.736Z,100700.88
2023-07-30T07:36:08.714Z,100692.94
2023-07-30T07:37:00.096Z,100692.84
2023-07-30T07:37:51.537Z,100694.50
2023-07-30T07:38:43.053Z,100690.97
2023-07-30T07:39:34.647Z,100696.25
2023-07-30T07:40:26.028Z,100690.97
2023-07-30T07:41:18.672Z,100695.22
2023-07-30T07:42:10.540Z,100692.53
2023-07-30T07:43:01.903Z,100695.19
2023-07-30T07:43:54.783Z,100696.00
2023-07-30T07:44:47.164Z,100702.16
2023-07-30T07:45:38.799Z,100700.38
2023-07-30T07:46:30.288Z,100705.66
2023-07-30T07:47:21.775Z,100703.00
2023-07-30T07:48:13.244Z,100702.13
2023-07-30T07:49:04.776Z,100703.06
2023-07-30T07:49:56.204Z,100704.81
2023-07-30T07:50:47.611Z,100709.09
2023-07-30T07:51:39.089Z,100703.66
2023-07-30T07:52:30.729Z,100702.72
2023-07-30T07:53:22.176Z,100702.78
2023-07-30T07:54:13.579Z,100707.31
2023-07-30T07:55:05.918Z,100705.63
2023-07-30T07:55:57.287Z,100701.25
2023-07-30T07:56:48.679Z,100702.13
2023-07-30T07:57:40.055Z,100702.94
2023-07-30T07:58:32.055Z,100699.50
2023-07-30T07:59:23.579Z,100705.53
2023-07-30T08:00:15.039Z,100695.88
2023-07-30T08:01:06.705Z,100697.63
2023-07-30T08:01:58.290Z,100693.25
2023-07-30T08:02:51.671Z,100701.91
2023-07-30T08:03:43.389Z,100700.19
2023-07-30T08:04:34.973Z,100696.50
2023-07-30T08:05:27.693Z,100700.78
2023-07-30T08:06:19.049Z,100700.75
2023-07-30T08:07:10.426Z,100696.41
2023-07-30T08:08:01.830Z,100697.31
2023-07-30T08:08:53.205Z,100695.47
2023-07-30T08:09:44.661Z,100699.91
2023-07-30T08:10:39.697Z,100697.28
2023-07-30T08:11:32.361Z,100696.19
2023-07-30T08:12:23.767Z,100704.09
2023-07-30T08:13:15.608Z,100702.22
2023-07-30T08:14:07.028Z,100702.16
2023-07-30T08:14:58.440Z,100699.78
2023-07-30T08:15:49.956Z,100704.94
2023-07-30T08:16:41.377Z,100710.97
2023-07-30T08:17:32.825Z,100706.50
2023-07-30T08:18:24.246Z,100702.91
2023-07-30T08:19:15.617Z,100707.19
2023-07-30T08:20:07.641Z,100706.16
2023-07-30T08:21:01.681Z,100708.69
2023-07-30T08:21:53.157Z,100707.75
2023-07-30T08:22:44.529Z,100707.47
2023-07-30T08:23:35.891Z,100705.78
2023-07-30T08:24:27.264Z,100710.06
2023-07-30T08:25:18.708Z,100702.13
2023-07-30T08:26:10.116Z,100711.97
2023-07-30T08:27:01.502Z,100704.72
2023-07-30T08:27:52.967Z,100706.47
2023-07-30T08:28:44.360Z,100705.63
2023-07-30T08:29:38.207Z,100705.50
2023-07-30T08:30:30.786Z,100702.00
2023-07-30T08:31:22.303Z,100702.25
2023-07-30T08:32:13.809Z,100713.69
2023-07-30T08:33:05.351Z,100711.06
2023-07-30T08:33:56.736Z,100712.84
2023-07-30T08:34:48.175Z,100716.50
2023-07-30T08:35:39.757Z,100715.88
2023-07-30T08:36:31.166Z,100711.50
2023-07-30T08:37:22.632Z,100712.59
2023-07-30T08:38:14.318Z,100718.28
2023-07-30T08:39:05.767Z,100708.56
2023-07-30T08:39:57.303Z,100706.88
2023-07-30T08:40:48.728Z,100705.94
2023-07-30T08:41:40.489Z,100704.34
2023-07-30T08:42:32.302Z,100697.41
2023-07-30T08:43:23.789Z,100705.22
2023-07-30T08:44:15.512Z,100706.97
2023-07-30T08:45:09.057Z,100704.34
2023-07-30T08:46:01.162Z,100703.44
2023-07-30T08:46:55.117Z,100710.31
2023-07-30T08:47:48.466Z,100708.53
2023-07-30T08:48:40.657Z,100709.38
2023-07-30T08:49:34.155Z,100707.59
2023-07-30T08:50:27.490Z,100705.06
2023-07-30T08:51:20.469Z,100710.31
2023-07-30T08:52:12.732Z,100717.53
2023-07-30T08:53:04.788Z,100710.72
2023-07-30T08:53:58.951Z,100715.19
2023-07-30T08:54:53.130Z,100705.44
2023-07-30T08:55:45.902Z,100710.72
2023-07-30T08:56:37.368Z,100715.91
2023-07-30T08:57:30.942Z,100721.91
2023-07-30T08:58:25.510Z,100718.28
2023-07-30T08:59:19.364Z,100724.13
2023-07-30T09:00:12.006Z,100727.47
2023-07-30T09:01:12.359Z,100732.47
2023-07-30T09:02:11.782Z,100730.44
2023-07-30T09:03:05.698Z,100731.19
2023-07-30T09:04:01.114Z,100737.38
2023-07-30T09:04:57.283Z,100733.81
2023-07-30T09:05:49.915Z,100738.25
2023-07-30T09:06:41.402Z,100742.84
2023-07-30T09:07:33.021Z,100740.97
2023-07-30T09:08:25.186Z,100734.66
2023-07-30T09:09:17.052Z,100735.16
2023-07-30T09:10:08.829Z,100736.56
2023-07-30T09:11:11.793Z,100730.31
2023-07-30T09:12:03.551Z,100734.66
2023-07-30T09:12:59.838Z,100739.56
2023-07-30T09:13:55.905Z,100736.06
2023-07-30T09:14:52.040Z,100741.31
2023-07-30T09:15:43.453Z,100734.53
2023-07-30T09:16:34.877Z,100742.16
2023-07-30T09:17:26.970Z,100749.00
2023-07-30T09:18:21.775Z,100750.47
2023-07-30T09:19:18.767Z,100747.00
2023-07-30T09:20:10.944Z,100745.19
2023-07-30T09:21:03.167Z,100739.94
2023-07-30T09:21:54.549Z,100736.75
2023-07-30T09:22:49.781Z,100738.44
2023-07-30T09:23:47.897Z,100742.16
2023-07-30T09:24:44.521Z,100746.25
2023-07-30T09:25:37.271Z,100750.19
2023-07-30T09:26:28.638Z,100751.41
2023-07-30T09:27:26.286Z,100751.03
2023-07-30T09:28:19.585Z,100750.88
2023-07-30T09:29:11.738Z,100744.56
2023-07-30T09:30:07.569Z,100755.16
2023-07-30T09:31:20.481Z,100752.16
2023-07-30T09:32:13.394Z,100759.47
2023-07-30T09:33:04.965Z,100751.03
2023-07-30T09:33:56.899Z,100747.59
2023-07-30T09:34:49.126Z,100748.34
2023-07-30T09:35:40.565Z,100756.22
2023-07-30T09:36:31.916Z,100754.78
2023-07-30T09:37:23.346Z,100753.88
2023-07-30T09:38:14.811Z,100756.34
2023-07-30T09:39:15.513Z,100753.53
2023-07-30T09:40:13.107Z,100752.63
2023-07-30T09:41:05.415Z,100750.84
2023-07-30T09:42:02.658Z,100752.38
2023-07-30T09:42:54.198Z,100755.84
2023-07-30T09:43:46.053Z,100760.78
2023-07-30T09:44:39.579Z,100762.47
2023-07-30T09:45:35.636Z,100760.50
2023-07-30T09:46:30.711Z,100756.97
2023-07-30T09:47:22.116Z,100758.34
2023-07-30T09:48:15.043Z,100767.19
2023-07-30T09:49:07.911Z,100762.81
2023-07-30T09:49:59.286Z,100761.78
2023-07-30T09:50:51.246Z,100769.59
2023-07-30T09:51:43.022Z,100763.25
2023-07-30T09:52:34.480Z,100767.78
2023-07-30T09:53:27.630Z,100765.22
2023-07-30T09:54:19.041Z,100771.28